Fentress, Virginia
Current Conditions -  °F | °C
As of 9:35 AM on Tuesday 21 Oct 2014 (Local Time) from KCPK Reporting Station
Scattered Clouds Scattered Clouds  
Wind Chill: 66°   Ceiling: Unl
Heat Index: 66°   Visibility: 10mi
Dew Point: 59°   Wind: 3mph
Humidity: 78%   Direction: 210°SSW
Pressure: 29.91"   Gusts: NA
Location:  36.6227°N, 76.2654°W
Report Text: KCPK 211335Z AUTO 21003KT 10SM SCT100 19/15 A2991 RMK AO2
Loading
Personal Weather Stations






























Interactive Weather Map
Tropical Storm Tracking
New forecast layout! Learn more

10-Day Weather Forecast

Advertisements
Track Severe Weather on mobile